Edenton, NC (27932)

9:15 PM EDT on September 04, 2015 (GMT -0400)
Northeastern Regional | | Change Station
CLOSE
Current Station
Airport
Location: Edenton,
Elevation: 20 ft
Nearby Weather Stations

Elev 20 ft 36.03 °N, 76.57 °W | Updated 20 minutes ago

Clear
Clear
74 °F
Feels Like 74 °F
N
4
Wind Variable Wind from NNE

Today
High -- | Low -- °F
--% Chance of Precip.
Yesterday
High -- | Low -- °F
Precip. -- in
6:40 AM 7:30 PM
Waning Gibbous, 54% visible
Pressure 30.02 in
Visibility 7.0 miles
Clouds Clear
Dew Point 69 °F
Humidity 87%
Rainfall 0.00 in
Snow Depth Not available.
UV 0 out of 12
Pollen 9.60 out of 12
Air Quality Not available.
Flu Activity Not available.
METAR KEDE 050055Z AUTO 02003KT 7SM CLR 23/21 A3002 RMK AO2 T02310208
Pressure 30.02 in
Visibility 7.0 miles
Clouds Clear
Dew Point 69 °F
Humidity 87%
Rainfall 0.00 in
Snow Depth Not available.
UV 0 out of 12
Pollen 9.60 out of 12
Air Quality Not available.
Flu Activity Not available.
METAR KEDE 050055Z AUTO 02003KT 7SM CLR 23/21 A3002 RMK AO2 T02310208

10-Day Weather Forecast

×

Almanac

Astronomy

Sep. 04, 2015 Rise Set
Actual Time
Civil Twilight
Nautical Twilight
Astronomical Twilight
Moon
Length of Visible Light
Length of Day
Tomorrow will be .
, % of the Moon is Illuminated

Today's Extremes

State Highs State Lows

Community

WunderPhotos

Upload Photos

1,852,372 photos uploaded!

WunderBlogs® & News

Nearby

Air Quality

  Air Quality AQ Index Pollutant
Not available.

Snow Depth

Station Depth Elevation

Earthquake Activity

City Distance Mag. Time & Date
Minimum magnitude displayed is 2.5.

Coastal Water Temperatures

Place Temperature

Stations

Nearby Weather Stations

Station Location Temp. Windchill Dew Point Humidity Wind Precip. Elev Updated Type